Platzwetter Flugplatz Wels

Flugwetter Linz LOWL

[Quelle: ADDS]
METAR
LOWL 181450Z 05006KT 360V090 9999 FEW070 32/15 Q1011 NOSIG =
LOWL 181115Z 1812/1912 09004KT CAVOK TX31/1814Z TN18/1904Z BECMG 1820/1823 26006KT 9999 FEW070 SCT140 TEMPO 1903/1912 29010KT -SHRA SCT045 BKN070
TAF
LOWL 181115Z 1812/1912 09004KT CAVOK TX31/1814Z TN18/1904Z BECMG 1820/1823 26006KT 9999 FEW070 SCT140 TEMPO 1903/1912 29010KT -SHRA SCT045 BKN070 =

Flugwetter Salzburg LOWS

[Quelle: ADDS]
METAR
LOWS 181450Z 01004KT 330V070 9999 FEW070 31/11 Q1012 NOSIG =
LOWS 181115Z 1812/1912 35006KT 9999 FEW070 TX31/1814Z TN18/1905Z BECMG 1816/1818 15005KT CAVOK BECMG 1821/1823 22005KT 9999 FEW060 BKN090 TEMPO 1821/1903 30010KT PROB30 1822/1903 33015G25KT SHRA SCT050 FEW060TCU BECMG 1902/1904 15004KT FEW030 SCT050 BKN080 TEMPO 1906/1912 29008KT SHRA BKN050 FEW050TCU
TAF
LOWS 181115Z 1812/1912 35006KT 9999 FEW070 TX31/1814Z TN18/1905Z BECMG 1816/1818 15005KT CAVOK BECMG 1821/1823 22005KT 9999 FEW060 BKN090 TEMPO 1821/1903 30010KT PROB30 1822/1903 33015G25KT SHRA SCT050 FEW060TCU BECMG 1902/1904 15004KT FEW030 SCT050 BKN080 TEMPO 1906/1912 29008KT SHRA BKN050 FEW050TCU =

Wind - Verlauf

Windrichtung - Verlauf

Temperatur - Verlauf

Relative Luftfeuchtigkeit - Verlauf

Luftdruck - Verlauf


Pilot für einen Tag - Erfülle Dir den Traum vom Fliegen!

Werde einen Tag lang Pilot bei und mit dem Fliegerclub Weiße Möwe in Wels!

Stadt - Wels

Ausflugsziele & Sehenswürdigkeiten
in Wels und Umgebung

RUNDFLÜGE MIT DER ANTONOV AN-2 (Tiroler Adler)

Jetzt Rundflug-Tickets mit der legendären ANTONOV in Wels sichern!
Cookies erleichtern die Bereitstellung unserer Dienste. Mit der Nutzung unserer Dienste erklären Sie sich damit einverstanden, dass wir Cookies verwenden.
Weitere Informationen Ok